Terminal Aerodrome Forecast
Issued by NWS Tampa Bay Area, FL

Home | Current Version | Previous Version | Text Only | Print | Product List | Glossary On
Versions: 1 2 3 4 5 6 7 8 9 10 11 12
000
FTUS42 KTBW 281737
TAFFMY
TAF
KFMY 281737Z 2818/2918 09007KT P6SM BKN040 BKN080
      TEMPO 2818/2821 VRB15G25KT 3SM TSRA BKN025CB
     FM282100 26008KT P6SM VCTS SCT040CB BKN100
     FM290200 VRB03KT P6SM FEW090 SCT250
     FM291600 26005KT P6SM SCT040 SCT250=

USA.gov is the U.S. government's official web portal to all federal, state and local government web resources and services.